Terminal Aerodrome Forecast
Issued by NWS

Home | Current Version | Previous Version | Text Only | Print | Product List | Glossary On
Versions: 1 2 3 4 5 6 7 8 9 10 11 12 13 14 15 16 17 18
000
FTUS46 KMTR 162330
TAFSNS
TAF
KSNS 162330Z 1700/1724 28011KT P6SM SKC
     FM170300 29008KT P6SM BKN011
     FM170600 30004KT P6SM OVC007
     FM171200 VRB03KT 5SM BR OVC002
     FM171600 VRB03KT P6SM OVC006
     FM171800 27005KT P6SM SCT010
     FM172000 27010KT P6SM SKC=

USA.gov is the U.S. government's official web portal to all federal, state and local government web resources and services.